Silver Bay, MN

6:50 PM CST on January 21, 2018 (GMT -0600)
Silver Bay Municipal

Weather History for KBFW - March, 2014

Change the Weather History Date:

Monday, March 10, 2014

  Actual Average Record
Temperature  
Mean Temperature 39 °F -  
Max Temperature 55 °F 27 °F 60 °F (2015)
Min Temperature 23 °F 6 °F -9 °F (2008)
Degree Days  
Heating Degree Days 26    
Moisture  
Dew Point 29 °F    
Average Humidity 70    
Maximum Humidity 100    
Minimum Humidity 38    
Precipitation  
Precipitation 0.00 in - - ()
Sea Level Pressure  
Sea Level Pressure 29.49 in    
Wind  
Wind Speed 3 mph (West)    
Max Wind Speed 13 mph    
Max Gust Speed 30 mph    
Visibility 9 miles    
Events Fog    
Averages and records for this station are not official NWS values.
T = Trace of Precipitation, MM = Missing Value Source: NWS Daily Summary

Daily Weather History Graph

Daily Weather History Graph

Search for Another Location

Airport or City:

Trip Planner

Search our weather history database for the weather conditions in past years. The results will help you decide how hot, cold, wet, or windy it might be!

Date:

Astronomy

Mar. 10, 2014 Rise Set
Actual Time 7:28 AM CDT 7:04 PM CDT
Civil Twilight 6:58 AM CDT 7:34 PM CDT
Nautical Twilight 6:22 AM CDT 8:10 PM CDT
Astronomical Twilight 5:46 AM CDT 8:46 PM CDT
Moon 1:32 PM CDT (3/10) 3:56 AM CDT (3/10)
Length of Visible Light 12h 36m
Length of Day
11h 35m
Waxing Gibbous, 70% of the Moon is Illuminated
Mar 10
Waxing Gibbous
Mar 16
Full
Mar 23
Last Quarter
Mar 30
New
Apr 7
First Quarter

Hourly Weather History & Observations

Time (CDT) Temp. Windchill Dew Point Humidity Pressure Visibility Wind Dir Wind Speed Gust Speed Precip Events Conditions
12:13 AM 32.0 °F - 28.4 °F 87% 29.53 in 10.0 mi Calm Calm - N/A   Clear
12:33 AM 33.8 °F - 28.4 °F 81% 29.54 in 10.0 mi Calm Calm - N/A   Clear
12:53 AM 30.2 °F - 28.4 °F 93% 29.53 in 10.0 mi Calm Calm - N/A   Clear
1:13 AM 30.2 °F - 28.4 °F 93% 29.53 in 10.0 mi Calm Calm - N/A   Clear
1:33 AM 35.6 °F 32.8 °F 30.2 °F 81% 29.53 in 10.0 mi WNW 3.5 mph - N/A   Clear
1:53 AM 35.6 °F - 30.2 °F 81% 29.51 in 10.0 mi Calm Calm - N/A   Clear
2:13 AM 30.2 °F - 28.4 °F 93% 29.50 in 10.0 mi Calm Calm - N/A   Clear
2:33 AM 28.4 °F - 26.6 °F 93% 29.50 in 10.0 mi Calm Calm - N/A   Clear
2:53 AM 28.4 °F - 26.6 °F 93% 29.49 in 7.0 mi Calm Calm - N/A   Clear
3:13 AM 28.4 °F - 26.6 °F 93% 29.49 in 10.0 mi Calm Calm - N/A   Clear
3:33 AM 26.6 °F - 26.6 °F 100% 29.49 in 10.0 mi Calm Calm - N/A   Clear
3:53 AM 28.4 °F - 28.4 °F 100% 29.49 in 10.0 mi Calm Calm - N/A   Clear
4:13 AM 28.4 °F 24.6 °F 28.4 °F 100% 29.49 in 10.0 mi ENE 3.5 mph - N/A   Clear
4:33 AM 28.4 °F - 28.4 °F 100% 29.49 in 10.0 mi Calm Calm - N/A   Clear
4:53 AM 26.6 °F - 26.6 °F 100% 29.49 in 10.0 mi Calm Calm - N/A   Clear
5:14 AM 26.6 °F - 26.6 °F 100% 29.49 in 10.0 mi Calm Calm - N/A   Clear
5:33 AM 24.8 °F - 24.8 °F 100% 29.48 in 7.0 mi Calm Calm - N/A   Clear
5:53 AM 24.8 °F - 24.8 °F 100% 29.47 in 7.0 mi Calm Calm - N/A   Clear
6:13 AM 24.8 °F - 24.8 °F 100% 29.46 in 5.0 mi Calm Calm - N/A   Clear
6:33 AM 24.8 °F - 24.8 °F 100% 29.45 in 7.0 mi Calm Calm - N/A   Clear
6:53 AM 23.0 °F - 23.0 °F 100% 29.45 in 7.0 mi Calm Calm - N/A   Clear
7:13 AM 24.8 °F - 24.8 °F 100% 29.45 in 7.0 mi Calm Calm - N/A   Clear
7:33 AM 24.8 °F - 24.8 °F 100% 29.45 in 5.0 mi Calm Calm - N/A   Clear
7:53 AM 26.6 °F 22.6 °F 26.6 °F 100% 29.46 in 4.0 mi SW 3.5 mph - N/A   Clear
8:13 AM 26.6 °F 22.6 °F 26.6 °F 100% 29.45 in 0.5 mi SW 3.5 mph - N/A Fog Light Freezing Fog
8:33 AM 26.6 °F - 26.6 °F 100% 29.45 in 0.2 mi Calm Calm - N/A Fog Light Freezing Fog
8:53 AM 26.6 °F 22.6 °F 26.6 °F 100% 29.44 in 0.2 mi SW 3.5 mph - N/A Fog Light Freezing Fog
9:13 AM 26.6 °F - 26.6 °F 100% 29.44 in 0.2 mi Calm Calm - N/A Fog Light Freezing Fog
9:33 AM 30.2 °F - 30.2 °F 100% 29.44 in 5.0 mi Calm Calm - N/A   Scattered Clouds
9:53 AM 39.2 °F 32.5 °F 33.8 °F 81% 29.42 in 10.0 mi West 10.4 mph 20.7 mph N/A   Clear
10:13 AM 41.0 °F 34.7 °F 33.8 °F 76% 29.41 in 10.0 mi West 10.4 mph - N/A   Clear
10:33 AM 42.8 °F 38.0 °F 33.8 °F 70% 29.42 in 10.0 mi WNW 8.1 mph 23.0 mph N/A   Clear
10:53 AM 44.6 °F 39.2 °F 33.8 °F 66% 29.43 in 10.0 mi West 10.4 mph 19.6 mph N/A   Clear
11:13 AM 46.4 °F 41.9 °F 33.8 °F 62% 29.44 in 10.0 mi West 9.2 mph 18.4 mph N/A   Clear
11:33 AM 48.2 °F - 33.8 °F 58% 29.45 in 10.0 mi West 11.5 mph 23.0 mph N/A   Clear
11:53 AM 50.0 °F - 33.8 °F 54% 29.45 in 10.0 mi WNW 11.5 mph 19.6 mph N/A   Clear
12:13 PM 51.8 °F - 33.8 °F 50% 29.46 in 10.0 mi West 9.2 mph 18.4 mph N/A   Clear
12:33 PM 51.8 °F - 32.0 °F 47% 29.46 in 10.0 mi West 10.4 mph 18.4 mph N/A   Clear
12:53 PM 53.6 °F - 32.0 °F 44% 29.46 in 10.0 mi West 10.4 mph 20.7 mph N/A   Clear
1:13 PM 53.6 °F - 32.0 °F 44% 29.47 in 10.0 mi West 12.7 mph 19.6 mph N/A   Clear
1:33 PM 53.6 °F - 32.0 °F 44% 29.47 in 10.0 mi West 11.5 mph 24.2 mph N/A   Clear
1:53 PM 53.6 °F - 32.0 °F 44% 29.46 in 10.0 mi West 9.2 mph 23.0 mph N/A   Clear
2:13 PM 53.6 °F - 32.0 °F 44% 29.47 in 10.0 mi West 10.4 mph 21.9 mph N/A   Clear
2:33 PM 53.6 °F - 30.2 °F 41% 29.46 in 10.0 mi WNW 12.7 mph 29.9 mph N/A   Clear
2:53 PM 55.4 °F - 30.2 °F 38% 29.47 in 10.0 mi West 11.5 mph 20.7 mph N/A   Clear
3:13 PM 53.6 °F - 30.2 °F 41% 29.47 in 10.0 mi West 11.5 mph 24.2 mph N/A   Clear
3:33 PM 53.6 °F - 30.2 °F 41% 29.47 in 10.0 mi West 6.9 mph 23.0 mph N/A   Clear
3:53 PM 55.4 °F - 30.2 °F 38% 29.47 in 10.0 mi West 11.5 mph 17.3 mph N/A   Clear
4:13 PM 53.6 °F - 30.2 °F 41% 29.47 in 10.0 mi WNW 8.1 mph 20.7 mph N/A   Clear
4:33 PM 53.6 °F - 30.2 °F 41% 29.47 in 10.0 mi West 6.9 mph 21.9 mph N/A   Clear
4:53 PM 53.6 °F - 30.2 °F 41% 29.46 in 10.0 mi West 6.9 mph - N/A   Clear
5:13 PM 53.6 °F - 30.2 °F 41% 29.46 in 10.0 mi West 10.4 mph 19.6 mph N/A   Clear
5:33 PM 51.8 °F - 28.4 °F 41% 29.47 in 10.0 mi WSW 8.1 mph 18.4 mph N/A   Clear
5:53 PM 51.8 °F - 28.4 °F 41% 29.47 in 10.0 mi West 5.8 mph 18.4 mph N/A   Clear
6:13 PM 50.0 °F - 28.4 °F 43% 29.47 in 10.0 mi WSW 6.9 mph - N/A   Clear
6:33 PM 48.2 °F - 28.4 °F 46% 29.49 in 10.0 mi WSW 5.8 mph - N/A   Clear
6:53 PM 46.4 °F - 28.4 °F 50% 29.50 in 10.0 mi Calm Calm - N/A   Clear
7:13 PM 46.4 °F 43.5 °F 28.4 °F 50% 29.50 in 10.0 mi WSW 5.8 mph - N/A   Clear
7:33 PM 46.4 °F 44.3 °F 28.4 °F 50% 29.51 in 10.0 mi WSW 4.6 mph - N/A   Clear
7:53 PM 44.6 °F 42.2 °F 28.4 °F 53% 29.52 in 10.0 mi WSW 4.6 mph - N/A   Clear
8:13 PM 42.8 °F - 28.4 °F 57% 29.53 in 10.0 mi Calm Calm - N/A   Clear
8:33 PM 42.8 °F 41.1 °F 28.4 °F 57% 29.53 in 10.0 mi SW 3.5 mph - N/A   Clear
8:53 PM 41.0 °F 38.0 °F 26.6 °F 57% 29.55 in 10.0 mi SW 4.6 mph - N/A   Clear
9:13 PM 41.0 °F 38.0 °F 28.4 °F 61% 29.55 in 10.0 mi WSW 4.6 mph - N/A   Clear
9:33 PM 42.8 °F 39.3 °F 28.4 °F 57% 29.55 in 10.0 mi West 5.8 mph - N/A   Clear
9:53 PM 42.8 °F 39.3 °F 28.4 °F 57% 29.56 in 10.0 mi West 5.8 mph - N/A   Clear
10:13 PM 42.8 °F 38.6 °F 28.4 °F 57% 29.56 in 10.0 mi West 6.9 mph - N/A   Clear
10:33 PM 41.0 °F 37.1 °F 28.4 °F 61% 29.57 in 10.0 mi West 5.8 mph 16.1 mph N/A   Clear
10:53 PM 41.0 °F 38.0 °F 28.4 °F 61% 29.58 in 10.0 mi WNW 4.6 mph - N/A   Clear
11:13 PM 39.2 °F 35.0 °F 28.4 °F 65% 29.58 in 10.0 mi WNW 5.8 mph - N/A   Clear
11:33 PM 39.2 °F 34.2 °F 28.4 °F 65% 29.58 in 10.0 mi WNW 6.9 mph - N/A   Clear
11:53 PM 39.2 °F 35.9 °F 30.2 °F 70% 29.58 in 10.0 mi WNW 4.6 mph - N/A   Clear